sensor_id;sensor_type;location;lat;lon;timestamp;P1;durP1;ratioP1;P2;durP2;ratioP2
54853;SDS011;40747;49.480;8.658;2023-05-07T00:01:29;2.22;;;1.17;;
54853;SDS011;40747;49.480;8.658;2023-05-07T00:03:54;1.50;;;1.20;;
54853;SDS011;40747;49.480;8.658;2023-05-07T00:06:19;1.90;;;1.33;;
54853;SDS011;40747;49.480;8.658;2023-05-07T00:08:45;1.00;;;0.90;;
54853;SDS011;40747;49.480;8.658;2023-05-07T00:11:10;6.65;;;0.90;;
54853;SDS011;40747;49.480;8.658;2023-05-07T00:13:35;0.95;;;0.80;;
54853;SDS011;40747;49.480;8.658;2023-05-07T00:16:03;2.15;;;0.90;;
54853;SDS011;40747;49.480;8.658;2023-05-07T00:18:28;1.17;;;0.60;;
54853;SDS011;40747;49.480;8.658;2023-05-07T00:20:54;1.20;;;0.80;;
54853;SDS011;40747;49.480;8.658;2023-05-07T00:23:21;1.77;;;0.88;;
54853;SDS011;40747;49.480;8.658;2023-05-07T00:25:46;0.57;;;0.55;;
54853;SDS011;40747;49.480;8.658;2023-05-07T00:28:11;2.38;;;1.00;;
54853;SDS011;40747;49.480;8.658;2023-05-07T00:30:36;1.30;;;0.70;;
54853;SDS011;40747;49.480;8.658;2023-05-07T00:33:02;1.15;;;0.73;;
54853;SDS011;40747;49.480;8.658;2023-05-07T00:35:28;1.90;;;0.88;;
54853;SDS011;40747;49.480;8.658;2023-05-07T00:37:54;1.33;;;0.80;;
54853;SDS011;40747;49.480;8.658;2023-05-07T00:40:20;1.75;;;0.95;;
54853;SDS011;40747;49.480;8.658;2023-05-07T00:42:45;0.95;;;0.80;;
54853;SDS011;40747;49.480;8.658;2023-05-07T00:45:12;0.82;;;0.60;;
54853;SDS011;40747;49.480;8.658;2023-05-07T00:47:41;1.63;;;0.90;;
54853;SDS011;40747;49.480;8.658;2023-05-07T00:50:06;1.50;;;0.82;;
54853;SDS011;40747;49.480;8.658;2023-05-07T00:52:33;0.70;;;0.70;;
54853;SDS011;40747;49.480;8.658;2023-05-07T00:55:00;1.67;;;0.75;;
54853;SDS011;40747;49.480;8.658;2023-05-07T00:57:32;0.75;;;0.60;;
54853;SDS011;40747;49.480;8.658;2023-05-07T01:00:04;0.80;;;0.60;;
54853;SDS011;40747;49.480;8.658;2023-05-07T01:02:30;1.15;;;0.88;;
54853;SDS011;40747;49.480;8.658;2023-05-07T01:04:56;0.95;;;0.70;;
54853;SDS011;40747;49.480;8.658;2023-05-07T01:07:24;1.08;;;0.57;;
54853;SDS011;40747;49.480;8.658;2023-05-07T01:09:49;1.70;;;0.70;;
54853;SDS011;40747;49.480;8.658;2023-05-07T01:12:15;1.42;;;0.70;;
54853;SDS011;40747;49.480;8.658;2023-05-07T01:14:41;0.85;;;0.82;;
54853;SDS011;40747;49.480;8.658;2023-05-07T01:17:06;0.50;;;0.50;;
54853;SDS011;40747;49.480;8.658;2023-05-07T01:19:33;1.08;;;0.68;;
54853;SDS011;40747;49.480;8.658;2023-05-07T01:22:01;0.90;;;0.80;;
54853;SDS011;40747;49.480;8.658;2023-05-07T01:24:29;1.30;;;0.75;;
54853;SDS011;40747;49.480;8.658;2023-05-07T01:26:56;0.68;;;0.55;;
54853;SDS011;40747;49.480;8.658;2023-05-07T01:29:21;1.45;;;1.02;;
54853;SDS011;40747;49.480;8.658;2023-05-07T01:31:46;2.45;;;0.60;;
54853;SDS011;40747;49.480;8.658;2023-05-07T01:34:13;0.40;;;0.40;;
54853;SDS011;40747;49.480;8.658;2023-05-07T01:36:42;0.70;;;0.60;;
54853;SDS011;40747;49.480;8.658;2023-05-07T01:39:08;0.95;;;0.63;;
54853;SDS011;40747;49.480;8.658;2023-05-07T01:41:35;3.22;;;1.10;;
54853;SDS011;40747;49.480;8.658;2023-05-07T01:44:00;3.08;;;1.05;;
54853;SDS011;40747;49.480;8.658;2023-05-07T01:46:28;0.73;;;0.70;;
54853;SDS011;40747;49.480;8.658;2023-05-07T01:48:54;0.68;;;0.63;;
54853;SDS011;40747;49.480;8.658;2023-05-07T01:51:20;0.68;;;0.52;;
54853;SDS011;40747;49.480;8.658;2023-05-07T01:53:47;0.80;;;0.70;;
54853;SDS011;40747;49.480;8.658;2023-05-07T01:56:15;3.05;;;0.70;;
54853;SDS011;40747;49.480;8.658;2023-05-07T01:58:41;0.73;;;0.70;;
54853;SDS011;40747;49.480;8.658;2023-05-07T02:01:07;1.23;;;0.70;;
54853;SDS011;40747;49.480;8.658;2023-05-07T02:03:32;0.93;;;0.70;;
54853;SDS011;40747;49.480;8.658;2023-05-07T02:05:57;0.77;;;0.60;;
54853;SDS011;40747;49.480;8.658;2023-05-07T02:08:22;3.75;;;0.70;;
54853;SDS011;40747;49.480;8.658;2023-05-07T02:10:48;1.13;;;0.70;;
54853;SDS011;40747;49.480;8.658;2023-05-07T02:13:14;1.27;;;0.68;;
54853;SDS011;40747;49.480;8.658;2023-05-07T02:15:40;3.33;;;0.88;;
54853;SDS011;40747;49.480;8.658;2023-05-07T02:18:05;0.88;;;0.63;;
54853;SDS011;40747;49.480;8.658;2023-05-07T02:20:32;1.63;;;1.00;;
54853;SDS011;40747;49.480;8.658;2023-05-07T02:22:58;1.20;;;0.85;;
54853;SDS011;40747;49.480;8.658;2023-05-07T02:25:23;1.90;;;1.23;;
54853;SDS011;40747;49.480;8.658;2023-05-07T02:27:48;0.75;;;0.75;;
54853;SDS011;40747;49.480;8.658;2023-05-07T02:30:14;1.20;;;0.93;;
54853;SDS011;40747;49.480;8.658;2023-05-07T02:32:40;0.50;;;0.50;;
54853;SDS011;40747;49.480;8.658;2023-05-07T02:35:05;2.00;;;0.88;;
54853;SDS011;40747;49.480;8.658;2023-05-07T02:37:31;0.73;;;0.70;;
54853;SDS011;40747;49.480;8.658;2023-05-07T02:39:56;0.63;;;0.60;;
54853;SDS011;40747;49.480;8.658;2023-05-07T02:42:21;2.28;;;0.85;;
54853;SDS011;40747;49.480;8.658;2023-05-07T02:44:47;2.97;;;0.90;;
54853;SDS011;40747;49.480;8.658;2023-05-07T02:47:13;1.08;;;0.82;;
54853;SDS011;40747;49.480;8.658;2023-05-07T02:49:40;1.63;;;0.80;;
54853;SDS011;40747;49.480;8.658;2023-05-07T02:52:05;1.33;;;1.08;;
54853;SDS011;40747;49.480;8.658;2023-05-07T02:54:31;1.88;;;0.98;;
54853;SDS011;40747;49.480;8.658;2023-05-07T02:56:56;3.80;;;1.17;;
54853;SDS011;40747;49.480;8.658;2023-05-07T02:59:22;0.95;;;0.75;;
54853;SDS011;40747;49.480;8.658;2023-05-07T03:01:48;1.05;;;0.50;;
54853;SDS011;40747;49.480;8.658;2023-05-07T03:04:13;0.55;;;0.55;;
54853;SDS011;40747;49.480;8.658;2023-05-07T03:06:38;1.13;;;0.80;;
54853;SDS011;40747;49.480;8.658;2023-05-07T03:09:04;1.25;;;0.93;;
54853;SDS011;40747;49.480;8.658;2023-05-07T03:11:29;0.95;;;0.88;;
54853;SDS011;40747;49.480;8.658;2023-05-07T03:13:54;1.05;;;0.82;;
54853;SDS011;40747;49.480;8.658;2023-05-07T03:16:20;1.40;;;1.00;;
54853;SDS011;40747;49.480;8.658;2023-05-07T03:18:45;3.35;;;1.08;;
54853;SDS011;40747;49.480;8.658;2023-05-07T03:21:10;2.00;;;1.02;;
54853;SDS011;40747;49.480;8.658;2023-05-07T03:23:36;1.05;;;0.95;;
54853;SDS011;40747;49.480;8.658;2023-05-07T03:26:01;4.82;;;1.15;;
54853;SDS011;40747;49.480;8.658;2023-05-07T03:28:26;0.57;;;0.57;;
54853;SDS011;40747;49.480;8.658;2023-05-07T03:30:52;1.25;;;1.00;;
54853;SDS011;40747;49.480;8.658;2023-05-07T03:33:17;0.82;;;0.73;;
54853;SDS011;40747;49.480;8.658;2023-05-07T03:35:42;2.15;;;1.02;;
54853;SDS011;40747;49.480;8.658;2023-05-07T03:38:07;1.50;;;0.98;;
54853;SDS011;40747;49.480;8.658;2023-05-07T03:40:33;0.57;;;0.57;;
54853;SDS011;40747;49.480;8.658;2023-05-07T03:42:59;9.52;;;1.13;;
54853;SDS011;40747;49.480;8.658;2023-05-07T03:45:25;1.35;;;0.80;;
54853;SDS011;40747;49.480;8.658;2023-05-07T03:47:50;1.05;;;0.90;;
54853;SDS011;40747;49.480;8.658;2023-05-07T03:50:16;1.00;;;0.80;;
54853;SDS011;40747;49.480;8.658;2023-05-07T03:52:41;2.53;;;1.00;;
54853;SDS011;40747;49.480;8.658;2023-05-07T03:55:07;0.85;;;0.65;;
54853;SDS011;40747;49.480;8.658;2023-05-07T03:57:32;2.85;;;0.95;;
54853;SDS011;40747;49.480;8.658;2023-05-07T03:59:58;1.35;;;0.82;;
54853;SDS011;40747;49.480;8.658;2023-05-07T04:02:23;1.05;;;0.93;;
54853;SDS011;40747;49.480;8.658;2023-05-07T04:04:48;1.38;;;1.15;;
54853;SDS011;40747;49.480;8.658;2023-05-07T04:07:14;2.63;;;1.33;;
54853;SDS011;40747;49.480;8.658;2023-05-07T04:09:40;3.85;;;1.20;;
54853;SDS011;40747;49.480;8.658;2023-05-07T04:12:05;1.38;;;0.98;;
54853;SDS011;40747;49.480;8.658;2023-05-07T04:14:30;0.70;;;0.68;;
54853;SDS011;40747;49.480;8.658;2023-05-07T04:16:57;1.65;;;0.70;;
54853;SDS011;40747;49.480;8.658;2023-05-07T04:19:23;1.20;;;0.88;;
54853;SDS011;40747;49.480;8.658;2023-05-07T04:21:48;2.40;;;0.85;;
54853;SDS011;40747;49.480;8.658;2023-05-07T04:24:16;0.90;;;0.80;;
54853;SDS011;40747;49.480;8.658;2023-05-07T04:26:41;1.73;;;1.10;;
54853;SDS011;40747;49.480;8.658;2023-05-07T04:29:06;1.50;;;1.10;;
54853;SDS011;40747;49.480;8.658;2023-05-07T04:31:32;2.25;;;0.50;;
54853;SDS011;40747;49.480;8.658;2023-05-07T04:33:57;1.92;;;1.10;;
54853;SDS011;40747;49.480;8.658;2023-05-07T04:36:23;1.48;;;1.08;;
54853;SDS011;40747;49.480;8.658;2023-05-07T04:38:52;1.70;;;0.90;;
54853;SDS011;40747;49.480;8.658;2023-05-07T04:41:17;1.10;;;1.00;;
54853;SDS011;40747;49.480;8.658;2023-05-07T04:43:43;2.75;;;1.08;;
54853;SDS011;40747;49.480;8.658;2023-05-07T04:46:08;0.82;;;0.63;;
54853;SDS011;40747;49.480;8.658;2023-05-07T04:48:33;1.25;;;0.90;;
54853;SDS011;40747;49.480;8.658;2023-05-07T04:50:58;1.50;;;1.25;;
54853;SDS011;40747;49.480;8.658;2023-05-07T04:53:24;1.90;;;0.88;;
54853;SDS011;40747;49.480;8.658;2023-05-07T04:55:54;1.20;;;1.10;;
54853;SDS011;40747;49.480;8.658;2023-05-07T04:58:21;3.13;;;1.40;;
54853;SDS011;40747;49.480;8.658;2023-05-07T05:00:46;1.48;;;0.90;;
54853;SDS011;40747;49.480;8.658;2023-05-07T05:03:11;1.10;;;1.00;;
54853;SDS011;40747;49.480;8.658;2023-05-07T05:05:37;0.95;;;0.85;;
54853;SDS011;40747;49.480;8.658;2023-05-07T05:08:02;3.85;;;1.10;;
54853;SDS011;40747;49.480;8.658;2023-05-07T05:10:28;1.40;;;1.05;;
54853;SDS011;40747;49.480;8.658;2023-05-07T05:12:53;2.17;;;0.90;;
54853;SDS011;40747;49.480;8.658;2023-05-07T05:15:18;1.60;;;1.00;;
54853;SDS011;40747;49.480;8.658;2023-05-07T05:17:44;1.65;;;1.30;;
54853;SDS011;40747;49.480;8.658;2023-05-07T05:20:09;1.25;;;0.80;;
54853;SDS011;40747;49.480;8.658;2023-05-07T05:22:37;1.02;;;0.95;;
54853;SDS011;40747;49.480;8.658;2023-05-07T05:25:02;0.73;;;0.73;;
54853;SDS011;40747;49.480;8.658;2023-05-07T05:27:28;1.17;;;0.65;;
54853;SDS011;40747;49.480;8.658;2023-05-07T05:29:53;1.45;;;0.82;;
54853;SDS011;40747;49.480;8.658;2023-05-07T05:32:19;2.72;;;0.77;;
54853;SDS011;40747;49.480;8.658;2023-05-07T05:34:44;1.92;;;0.80;;
54853;SDS011;40747;49.480;8.658;2023-05-07T05:37:10;0.90;;;0.60;;
54853;SDS011;40747;49.480;8.658;2023-05-07T05:39:35;1.08;;;0.52;;
54853;SDS011;40747;49.480;8.658;2023-05-07T05:42:01;0.90;;;0.80;;
54853;SDS011;40747;49.480;8.658;2023-05-07T05:44:26;2.60;;;0.80;;
54853;SDS011;40747;49.480;8.658;2023-05-07T05:46:51;1.35;;;0.70;;
54853;SDS011;40747;49.480;8.658;2023-05-07T05:49:19;1.00;;;0.88;;
54853;SDS011;40747;49.480;8.658;2023-05-07T05:51:45;2.38;;;0.80;;
54853;SDS011;40747;49.480;8.658;2023-05-07T05:54:10;1.05;;;0.80;;
54853;SDS011;40747;49.480;8.658;2023-05-07T05:56:36;0.98;;;0.73;;
54853;SDS011;40747;49.480;8.658;2023-05-07T05:59:01;1.65;;;1.00;;
54853;SDS011;40747;49.480;8.658;2023-05-07T06:01:27;1.65;;;1.00;;
54853;SDS011;40747;49.480;8.658;2023-05-07T06:03:52;0.85;;;0.80;;
54853;SDS011;40747;49.480;8.658;2023-05-07T06:06:17;2.47;;;1.23;;
54853;SDS011;40747;49.480;8.658;2023-05-07T06:08:43;2.13;;;1.08;;
54853;SDS011;40747;49.480;8.658;2023-05-07T06:11:08;2.30;;;1.40;;
54853;SDS011;40747;49.480;8.658;2023-05-07T06:13:33;1.42;;;0.90;;
54853;SDS011;40747;49.480;8.658;2023-05-07T06:15:58;8.60;;;1.23;;
54853;SDS011;40747;49.480;8.658;2023-05-07T06:18:24;3.92;;;1.40;;
54853;SDS011;40747;49.480;8.658;2023-05-07T06:20:50;2.13;;;1.40;;
54853;SDS011;40747;49.480;8.658;2023-05-07T06:23:16;1.88;;;1.55;;
54853;SDS011;40747;49.480;8.658;2023-05-07T06:25:41;3.05;;;2.00;;
54853;SDS011;40747;49.480;8.658;2023-05-07T06:28:07;2.55;;;1.60;;
54853;SDS011;40747;49.480;8.658;2023-05-07T06:30:34;2.75;;;1.55;;
54853;SDS011;40747;49.480;8.658;2023-05-07T06:32:59;3.35;;;1.70;;
54853;SDS011;40747;49.480;8.658;2023-05-07T06:35:25;2.00;;;1.80;;
54853;SDS011;40747;49.480;8.658;2023-05-07T06:37:50;3.85;;;1.80;;
54853;SDS011;40747;49.480;8.658;2023-05-07T06:40:15;2.45;;;1.77;;
54853;SDS011;40747;49.480;8.658;2023-05-07T06:42:41;2.03;;;1.55;;
54853;SDS011;40747;49.480;8.658;2023-05-07T06:45:07;2.15;;;1.33;;
54853;SDS011;40747;49.480;8.658;2023-05-07T06:47:33;2.00;;;1.60;;
54853;SDS011;40747;49.480;8.658;2023-05-07T06:49:58;2.75;;;2.10;;
54853;SDS011;40747;49.480;8.658;2023-05-07T06:52:24;4.95;;;2.33;;
54853;SDS011;40747;49.480;8.658;2023-05-07T06:54:49;3.35;;;1.75;;
54853;SDS011;40747;49.480;8.658;2023-05-07T06:57:14;3.83;;;1.70;;
54853;SDS011;40747;49.480;8.658;2023-05-07T06:59:40;2.30;;;1.80;;
54853;SDS011;40747;49.480;8.658;2023-05-07T07:02:05;1.65;;;1.52;;
54853;SDS011;40747;49.480;8.658;2023-05-07T07:04:31;1.95;;;1.52;;
54853;SDS011;40747;49.480;8.658;2023-05-07T07:06:57;2.10;;;1.58;;
54853;SDS011;40747;49.480;8.658;2023-05-07T07:09:22;1.60;;;1.35;;
54853;SDS011;40747;49.480;8.658;2023-05-07T07:11:47;2.78;;;1.60;;
54853;SDS011;40747;49.480;8.658;2023-05-07T07:14:13;3.78;;;1.73;;
54853;SDS011;40747;49.480;8.658;2023-05-07T07:16:38;2.67;;;2.10;;
54853;SDS011;40747;49.480;8.658;2023-05-07T07:19:03;1.92;;;1.55;;
54853;SDS011;40747;49.480;8.658;2023-05-07T07:21:29;1.83;;;1.50;;
54853;SDS011;40747;49.480;8.658;2023-05-07T07:23:55;3.33;;;2.28;;
54853;SDS011;40747;49.480;8.658;2023-05-07T07:26:20;3.60;;;2.20;;
54853;SDS011;40747;49.480;8.658;2023-05-07T07:28:46;1.85;;;1.50;;
54853;SDS011;40747;49.480;8.658;2023-05-07T07:31:11;4.22;;;1.73;;
54853;SDS011;40747;49.480;8.658;2023-05-07T07:33:37;2.75;;;1.52;;
54853;SDS011;40747;49.480;8.658;2023-05-07T07:36:03;2.47;;;1.65;;
54853;SDS011;40747;49.480;8.658;2023-05-07T07:38:30;2.70;;;1.42;;
54853;SDS011;40747;49.480;8.658;2023-05-07T07:40:55;1.50;;;1.40;;
54853;SDS011;40747;49.480;8.658;2023-05-07T07:43:21;1.90;;;1.40;;
54853;SDS011;40747;49.480;8.658;2023-05-07T07:45:46;4.43;;;1.45;;
54853;SDS011;40747;49.480;8.658;2023-05-07T07:48:11;2.63;;;1.60;;
54853;SDS011;40747;49.480;8.658;2023-05-07T07:50:37;3.10;;;1.90;;
54853;SDS011;40747;49.480;8.658;2023-05-07T07:53:03;1.25;;;1.10;;
54853;SDS011;40747;49.480;8.658;2023-05-07T07:55:28;3.03;;;1.40;;
54853;SDS011;40747;49.480;8.658;2023-05-07T07:57:53;2.10;;;1.40;;
54853;SDS011;40747;49.480;8.658;2023-05-07T08:00:18;1.90;;;1.23;;
54853;SDS011;40747;49.480;8.658;2023-05-07T08:02:44;3.88;;;1.13;;
54853;SDS011;40747;49.480;8.658;2023-05-07T08:05:09;1.30;;;1.17;;
54853;SDS011;40747;49.480;8.658;2023-05-07T08:07:35;1.27;;;1.17;;
54853;SDS011;40747;49.480;8.658;2023-05-07T08:10:00;1.38;;;1.20;;
54853;SDS011;40747;49.480;8.658;2023-05-07T08:12:25;3.50;;;1.40;;
54853;SDS011;40747;49.480;8.658;2023-05-07T08:14:51;2.92;;;1.20;;
54853;SDS011;40747;49.480;8.658;2023-05-07T08:17:16;1.10;;;1.00;;
54853;SDS011;40747;49.480;8.658;2023-05-07T08:19:42;1.33;;;1.08;;
54853;SDS011;40747;49.480;8.658;2023-05-07T08:22:08;2.78;;;1.33;;
54853;SDS011;40747;49.480;8.658;2023-05-07T08:24:34;2.00;;;1.58;;
54853;SDS011;40747;49.480;8.658;2023-05-07T08:26:59;4.28;;;1.48;;
54853;SDS011;40747;49.480;8.658;2023-05-07T08:29:25;1.80;;;1.60;;
54853;SDS011;40747;49.480;8.658;2023-05-07T08:31:50;2.15;;;1.60;;
54853;SDS011;40747;49.480;8.658;2023-05-07T08:34:15;2.15;;;1.52;;
54853;SDS011;40747;49.480;8.658;2023-05-07T08:36:41;1.33;;;1.20;;
54853;SDS011;40747;49.480;8.658;2023-05-07T08:39:11;1.50;;;1.25;;
54853;SDS011;40747;49.480;8.658;2023-05-07T08:41:36;1.52;;;1.40;;
54853;SDS011;40747;49.480;8.658;2023-05-07T08:44:02;1.95;;;1.35;;
54853;SDS011;40747;49.480;8.658;2023-05-07T08:46:31;3.33;;;1.38;;
54853;SDS011;40747;49.480;8.658;2023-05-07T08:48:57;1.25;;;1.10;;
54853;SDS011;40747;49.480;8.658;2023-05-07T08:51:23;1.63;;;1.40;;
54853;SDS011;40747;49.480;8.658;2023-05-07T08:53:49;2.25;;;1.63;;
54853;SDS011;40747;49.480;8.658;2023-05-07T08:56:15;2.85;;;1.20;;
54853;SDS011;40747;49.480;8.658;2023-05-07T08:58:44;2.80;;;1.55;;
54853;SDS011;40747;49.480;8.658;2023-05-07T09:01:13;2.88;;;1.60;;
54853;SDS011;40747;49.480;8.658;2023-05-07T09:03:40;1.60;;;1.45;;
54853;SDS011;40747;49.480;8.658;2023-05-07T09:06:09;3.55;;;1.92;;
54853;SDS011;40747;49.480;8.658;2023-05-07T09:08:35;2.30;;;1.45;;
54853;SDS011;40747;49.480;8.658;2023-05-07T09:11:01;2.22;;;1.60;;
54853;SDS011;40747;49.480;8.658;2023-05-07T09:13:27;1.85;;;1.63;;
54853;SDS011;40747;49.480;8.658;2023-05-07T09:15:53;2.63;;;1.65;;
54853;SDS011;40747;49.480;8.658;2023-05-07T09:18:18;1.25;;;1.15;;
54853;SDS011;40747;49.480;8.658;2023-05-07T09:20:44;2.33;;;1.73;;
54853;SDS011;40747;49.480;8.658;2023-05-07T09:23:09;2.72;;;1.70;;
54853;SDS011;40747;49.480;8.658;2023-05-07T09:25:35;1.85;;;1.48;;
54853;SDS011;40747;49.480;8.658;2023-05-07T09:28:01;3.72;;;1.50;;
54853;SDS011;40747;49.480;8.658;2023-05-07T09:30:28;3.75;;;1.15;;
54853;SDS011;40747;49.480;8.658;2023-05-07T09:33:00;2.20;;;1.35;;
54853;SDS011;40747;49.480;8.658;2023-05-07T09:35:27;4.65;;;1.60;;
54853;SDS011;40747;49.480;8.658;2023-05-07T09:37:53;3.47;;;1.50;;
54853;SDS011;40747;49.480;8.658;2023-05-07T09:40:24;2.47;;;1.60;;
54853;SDS011;40747;49.480;8.658;2023-05-07T09:42:54;3.05;;;1.70;;
54853;SDS011;40747;49.480;8.658;2023-05-07T09:47:53;1.92;;;1.65;;
54853;SDS011;40747;49.480;8.658;2023-05-07T09:50:21;2.38;;;1.42;;
54853;SDS011;40747;49.480;8.658;2023-05-07T09:53:07;2.15;;;1.50;;
54853;SDS011;40747;49.480;8.658;2023-05-07T09:55:35;2.15;;;1.42;;
54853;SDS011;40747;49.480;8.658;2023-05-07T09:58:01;1.63;;;1.50;;
54853;SDS011;40747;49.480;8.658;2023-05-07T10:00:28;2.67;;;1.65;;
54853;SDS011;40747;49.480;8.658;2023-05-07T10:02:53;2.08;;;1.45;;
54853;SDS011;40747;49.480;8.658;2023-05-07T10:05:22;3.03;;;1.60;;
54853;SDS011;40747;49.480;8.658;2023-05-07T10:07:48;3.22;;;1.63;;
54853;SDS011;40747;49.480;8.658;2023-05-07T10:10:14;3.95;;;1.65;;
54853;SDS011;40747;49.480;8.658;2023-05-07T10:12:40;3.30;;;2.03;;
54853;SDS011;40747;49.480;8.658;2023-05-07T10:15:06;4.22;;;1.58;;
54853;SDS011;40747;49.480;8.658;2023-05-07T10:17:36;4.00;;;2.05;;
54853;SDS011;40747;49.480;8.658;2023-05-07T10:20:03;2.03;;;1.55;;
54853;SDS011;40747;49.480;8.658;2023-05-07T10:22:30;1.73;;;1.52;;
54853;SDS011;40747;49.480;8.658;2023-05-07T10:25:03;1.58;;;1.33;;
54853;SDS011;40747;49.480;8.658;2023-05-07T10:27:33;3.10;;;1.60;;
54853;SDS011;40747;49.480;8.658;2023-05-07T10:32:41;1.83;;;1.20;;
54853;SDS011;40747;49.480;8.658;2023-05-07T10:35:14;1.50;;;1.40;;
54853;SDS011;40747;49.480;8.658;2023-05-07T10:37:42;2.65;;;1.67;;
54853;SDS011;40747;49.480;8.658;2023-05-07T10:40:09;2.42;;;1.45;;
54853;SDS011;40747;49.480;8.658;2023-05-07T10:42:35;2.08;;;1.15;;
54853;SDS011;40747;49.480;8.658;2023-05-07T10:45:13;1.77;;;1.38;;
54853;SDS011;40747;49.480;8.658;2023-05-07T10:50:31;2.83;;;1.77;;
54853;SDS011;40747;49.480;8.658;2023-05-07T10:55:47;1.55;;;1.23;;
54853;SDS011;40747;49.480;8.658;2023-05-07T10:58:23;2.30;;;1.48;;
54853;SDS011;40747;49.480;8.658;2023-05-07T11:00:55;3.63;;;1.48;;
54853;SDS011;40747;49.480;8.658;2023-05-07T11:03:23;1.33;;;1.13;;
54853;SDS011;40747;49.480;8.658;2023-05-07T11:06:07;1.67;;;1.50;;
54853;SDS011;40747;49.480;8.658;2023-05-07T11:11:17;1.80;;;1.05;;
54853;SDS011;40747;49.480;8.658;2023-05-07T11:13:46;2.15;;;1.02;;
54853;SDS011;40747;49.480;8.658;2023-05-07T11:16:25;2.58;;;1.27;;
54853;SDS011;40747;49.480;8.658;2023-05-07T11:18:53;3.00;;;1.13;;
54853;SDS011;40747;49.480;8.658;2023-05-07T11:24:10;1.52;;;1.30;;
54853;SDS011;40747;49.480;8.658;2023-05-07T11:26:42;2.05;;;1.30;;
54853;SDS011;40747;49.480;8.658;2023-05-07T11:31:41;3.67;;;0.93;;
54853;SDS011;40747;49.480;8.658;2023-05-07T11:34:07;1.42;;;1.10;;
54853;SDS011;40747;49.480;8.658;2023-05-07T11:36:33;1.42;;;1.25;;
54853;SDS011;40747;49.480;8.658;2023-05-07T11:38:59;1.08;;;0.98;;
54853;SDS011;40747;49.480;8.658;2023-05-07T11:41:34;1.63;;;1.30;;
54853;SDS011;40747;49.480;8.658;2023-05-07T11:44:01;0.98;;;0.98;;
54853;SDS011;40747;49.480;8.658;2023-05-07T11:46:27;1.60;;;1.20;;
54853;SDS011;40747;49.480;8.658;2023-05-07T11:48:53;1.30;;;1.05;;
54853;SDS011;40747;49.480;8.658;2023-05-07T11:51:20;1.83;;;1.10;;
54853;SDS011;40747;49.480;8.658;2023-05-07T11:53:46;1.50;;;1.33;;
54853;SDS011;40747;49.480;8.658;2023-05-07T11:56:13;1.65;;;1.17;;
54853;SDS011;40747;49.480;8.658;2023-05-07T11:58:40;1.27;;;1.02;;
54853;SDS011;40747;49.480;8.658;2023-05-07T12:01:09;2.40;;;1.00;;
54853;SDS011;40747;49.480;8.658;2023-05-07T12:03:36;2.50;;;0.98;;
54853;SDS011;40747;49.480;8.658;2023-05-07T12:06:08;3.40;;;1.35;;
54853;SDS011;40747;49.480;8.658;2023-05-07T12:08:36;1.15;;;1.05;;
54853;SDS011;40747;49.480;8.658;2023-05-07T12:11:02;1.02;;;0.93;;
54853;SDS011;40747;49.480;8.658;2023-05-07T12:13:28;1.63;;;1.10;;
54853;SDS011;40747;49.480;8.658;2023-05-07T12:15:54;1.65;;;0.98;;
54853;SDS011;40747;49.480;8.658;2023-05-07T12:18:21;1.92;;;1.42;;
54853;SDS011;40747;49.480;8.658;2023-05-07T12:20:47;0.90;;;0.90;;
54853;SDS011;40747;49.480;8.658;2023-05-07T12:23:14;1.23;;;1.08;;
54853;SDS011;40747;49.480;8.658;2023-05-07T12:25:40;2.35;;;1.10;;
54853;SDS011;40747;49.480;8.658;2023-05-07T12:28:16;1.92;;;1.20;;
54853;SDS011;40747;49.480;8.658;2023-05-07T12:30:43;2.10;;;1.38;;
54853;SDS011;40747;49.480;8.658;2023-05-07T12:33:09;1.13;;;0.93;;
54853;SDS011;40747;49.480;8.658;2023-05-07T12:35:37;2.03;;;1.10;;
54853;SDS011;40747;49.480;8.658;2023-05-07T12:38:13;2.25;;;1.20;;
54853;SDS011;40747;49.480;8.658;2023-05-07T12:40:46;1.33;;;0.90;;
54853;SDS011;40747;49.480;8.658;2023-05-07T12:43:25;1.75;;;1.17;;
54853;SDS011;40747;49.480;8.658;2023-05-07T12:45:56;1.45;;;1.20;;
54853;SDS011;40747;49.480;8.658;2023-05-07T12:48:24;2.37;;;1.03;;
54853;SDS011;40747;49.480;8.658;2023-05-07T12:50:55;0.75;;;0.70;;
54853;SDS011;40747;49.480;8.658;2023-05-07T12:53:23;2.95;;;0.88;;
54853;SDS011;40747;49.480;8.658;2023-05-07T12:55:53;1.67;;;0.93;;
54853;SDS011;40747;49.480;8.658;2023-05-07T12:58:20;1.10;;;1.00;;
54853;SDS011;40747;49.480;8.658;2023-05-07T13:00:52;1.85;;;1.05;;
54853;SDS011;40747;49.480;8.658;2023-05-07T13:03:26;2.17;;;1.10;;
54853;SDS011;40747;49.480;8.658;2023-05-07T13:06:03;0.75;;;0.75;;
54853;SDS011;40747;49.480;8.658;2023-05-07T13:08:31;1.67;;;0.95;;
54853;SDS011;40747;49.480;8.658;2023-05-07T13:11:03;2.50;;;1.25;;
54853;SDS011;40747;49.480;8.658;2023-05-07T13:13:32;3.28;;;1.50;;
54853;SDS011;40747;49.480;8.658;2023-05-07T13:15:58;2.10;;;1.25;;
54853;SDS011;40747;49.480;8.658;2023-05-07T13:18:25;1.17;;;1.00;;
54853;SDS011;40747;49.480;8.658;2023-05-07T13:20:51;1.90;;;0.90;;
54853;SDS011;40747;49.480;8.658;2023-05-07T13:23:17;0.95;;;0.80;;
54853;SDS011;40747;49.480;8.658;2023-05-07T13:25:43;1.38;;;1.17;;
54853;SDS011;40747;49.480;8.658;2023-05-07T13:28:08;1.48;;;1.00;;
54853;SDS011;40747;49.480;8.658;2023-05-07T13:30:34;1.25;;;0.93;;
54853;SDS011;40747;49.480;8.658;2023-05-07T13:32:59;3.00;;;1.15;;
54853;SDS011;40747;49.480;8.658;2023-05-07T13:35:25;1.13;;;1.00;;
54853;SDS011;40747;49.480;8.658;2023-05-07T13:37:50;1.50;;;1.25;;
54853;SDS011;40747;49.480;8.658;2023-05-07T13:40:17;1.67;;;1.20;;
54853;SDS011;40747;49.480;8.658;2023-05-07T13:42:42;3.55;;;1.40;;
54853;SDS011;40747;49.480;8.658;2023-05-07T13:45:08;4.15;;;1.20;;
54853;SDS011;40747;49.480;8.658;2023-05-07T13:47:34;1.40;;;1.13;;
54853;SDS011;40747;49.480;8.658;2023-05-07T13:49:59;2.45;;;1.50;;
54853;SDS011;40747;49.480;8.658;2023-05-07T13:52:25;3.58;;;1.60;;
54853;SDS011;40747;49.480;8.658;2023-05-07T13:54:50;2.85;;;1.35;;
54853;SDS011;40747;49.480;8.658;2023-05-07T13:57:17;3.03;;;1.65;;
54853;SDS011;40747;49.480;8.658;2023-05-07T13:59:42;2.75;;;1.50;;
54853;SDS011;40747;49.480;8.658;2023-05-07T14:02:07;6.07;;;1.77;;
54853;SDS011;40747;49.480;8.658;2023-05-07T14:04:34;1.67;;;1.58;;
54853;SDS011;40747;49.480;8.658;2023-05-07T14:06:59;5.55;;;1.70;;
54853;SDS011;40747;49.480;8.658;2023-05-07T14:09:25;1.75;;;1.63;;
54853;SDS011;40747;49.480;8.658;2023-05-07T14:11:50;3.67;;;1.60;;
54853;SDS011;40747;49.480;8.658;2023-05-07T14:14:19;2.13;;;1.85;;
54853;SDS011;40747;49.480;8.658;2023-05-07T14:16:44;2.35;;;1.50;;
54853;SDS011;40747;49.480;8.658;2023-05-07T14:19:11;2.15;;;1.60;;
54853;SDS011;40747;49.480;8.658;2023-05-07T14:21:36;2.42;;;1.60;;
54853;SDS011;40747;49.480;8.658;2023-05-07T14:24:02;2.95;;;1.42;;
54853;SDS011;40747;49.480;8.658;2023-05-07T14:26:27;2.25;;;1.80;;
54853;SDS011;40747;49.480;8.658;2023-05-07T14:28:53;1.80;;;1.55;;
54853;SDS011;40747;49.480;8.658;2023-05-07T14:31:20;2.17;;;1.60;;
54853;SDS011;40747;49.480;8.658;2023-05-07T14:33:46;3.22;;;1.30;;
54853;SDS011;40747;49.480;8.658;2023-05-07T14:36:11;2.58;;;1.15;;
54853;SDS011;40747;49.480;8.658;2023-05-07T14:38:36;5.60;;;1.70;;
54853;SDS011;40747;49.480;8.658;2023-05-07T14:41:02;5.50;;;1.55;;
54853;SDS011;40747;49.480;8.658;2023-05-07T14:43:27;1.50;;;1.20;;
54853;SDS011;40747;49.480;8.658;2023-05-07T14:45:52;5.05;;;1.95;;
54853;SDS011;40747;49.480;8.658;2023-05-07T14:48:17;2.40;;;2.00;;
54853;SDS011;40747;49.480;8.658;2023-05-07T14:50:43;3.15;;;1.88;;
54853;SDS011;40747;49.480;8.658;2023-05-07T14:53:08;6.22;;;2.50;;
54853;SDS011;40747;49.480;8.658;2023-05-07T14:55:34;3.15;;;2.10;;
54853;SDS011;40747;49.480;8.658;2023-05-07T14:58:00;2.20;;;1.65;;
54853;SDS011;40747;49.480;8.658;2023-05-07T15:00:25;3.05;;;1.48;;
54853;SDS011;40747;49.480;8.658;2023-05-07T15:02:51;2.53;;;1.02;;